Opal, Wyoming
Current Conditions -  °F | °C
As of 1:55 PM on Tuesday 27 Jan 2015 (Local Time) from KEMM Reporting Station
Overcast Overcast  
Wind Chill: 41°   Ceiling: 8000
Heat Index: 41°   Visibility: 10mi
Dew Point: 28°   Wind: 3mph
Humidity: 61%   Direction: 290°WNW
Pressure: 30.19"   Gusts: NA
Location:  41.77°N, 110.33°W
Report Text: KEMM 272055Z AUTO 29003KT 10SM OVC080 05/M02 A3019 RMK AO2
Loading
Personal Weather Stations






























Interactive Weather Map New forecast layout! Learn more

10-Day Weather Forecast

Advertisements
Track Severe Weather on mobile